sensor_id;sensor_type;location;lat;lon;timestamp;temperature;humidity
16879;DHT22;8556;52.218;9.884;2022-08-19T00:01:25;19.60;99.90
16879;DHT22;8556;52.218;9.884;2022-08-19T00:03:52;19.70;99.90
16879;DHT22;8556;52.218;9.884;2022-08-19T00:06:19;19.70;99.90
16879;DHT22;8556;52.218;9.884;2022-08-19T00:08:46;19.70;99.90
16879;DHT22;8556;52.218;9.884;2022-08-19T00:11:13;19.60;99.90
16879;DHT22;8556;52.218;9.884;2022-08-19T00:13:41;19.60;99.90
16879;DHT22;8556;52.218;9.884;2022-08-19T00:16:08;19.60;99.90
16879;DHT22;8556;52.218;9.884;2022-08-19T00:18:35;19.60;99.90
16879;DHT22;8556;52.218;9.884;2022-08-19T00:21:02;19.50;99.90
16879;DHT22;8556;52.218;9.884;2022-08-19T00:23:34;19.50;99.90
16879;DHT22;8556;52.218;9.884;2022-08-19T00:26:02;19.40;99.90
16879;DHT22;8556;52.218;9.884;2022-08-19T00:28:29;19.50;99.90
16879;DHT22;8556;52.218;9.884;2022-08-19T00:30:58;19.40;99.90
16879;DHT22;8556;52.218;9.884;2022-08-19T00:33:25;19.30;99.90
16879;DHT22;8556;52.218;9.884;2022-08-19T00:35:52;19.30;99.90
16879;DHT22;8556;52.218;9.884;2022-08-19T00:38:19;19.30;99.90
16879;DHT22;8556;52.218;9.884;2022-08-19T00:40:48;19.20;99.90
16879;DHT22;8556;52.218;9.884;2022-08-19T00:43:19;19.20;99.90
16879;DHT22;8556;52.218;9.884;2022-08-19T00:45:46;19.10;99.90
16879;DHT22;8556;52.218;9.884;2022-08-19T00:48:15;19.10;99.90
16879;DHT22;8556;52.218;9.884;2022-08-19T00:50:43;19.00;99.90
16879;DHT22;8556;52.218;9.884;2022-08-19T00:53:11;19.00;99.90
16879;DHT22;8556;52.218;9.884;2022-08-19T00:55:41;19.00;99.90
16879;DHT22;8556;52.218;9.884;2022-08-19T00:58:13;19.00;99.90
16879;DHT22;8556;52.218;9.884;2022-08-19T01:00:41;19.10;99.90
16879;DHT22;8556;52.218;9.884;2022-08-19T01:03:11;19.00;99.90
16879;DHT22;8556;52.218;9.884;2022-08-19T01:05:42;18.90;99.90
16879;DHT22;8556;52.218;9.884;2022-08-19T01:08:10;18.90;99.90
16879;DHT22;8556;52.218;9.884;2022-08-19T01:10:40;19.00;99.90
16879;DHT22;8556;52.218;9.884;2022-08-19T01:13:07;18.90;99.90
16879;DHT22;8556;52.218;9.884;2022-08-19T01:15:39;18.80;99.90
16879;DHT22;8556;52.218;9.884;2022-08-19T01:18:10;18.80;99.90
16879;DHT22;8556;52.218;9.884;2022-08-19T01:20:39;18.70;99.90
16879;DHT22;8556;52.218;9.884;2022-08-19T01:23:08;18.70;99.90
16879;DHT22;8556;52.218;9.884;2022-08-19T01:25:40;18.70;99.90
16879;DHT22;8556;52.218;9.884;2022-08-19T01:28:07;18.70;99.90
16879;DHT22;8556;52.218;9.884;2022-08-19T01:30:35;18.70;99.90
16879;DHT22;8556;52.218;9.884;2022-08-19T01:33:03;18.70;99.90
16879;DHT22;8556;52.218;9.884;2022-08-19T01:35:31;18.70;99.90
16879;DHT22;8556;52.218;9.884;2022-08-19T01:38:01;18.70;99.90
16879;DHT22;8556;52.218;9.884;2022-08-19T01:40:32;18.70;99.90
16879;DHT22;8556;52.218;9.884;2022-08-19T01:43:01;18.70;99.90
16879;DHT22;8556;52.218;9.884;2022-08-19T01:45:30;18.70;99.90
16879;DHT22;8556;52.218;9.884;2022-08-19T01:47:58;18.70;99.90
16879;DHT22;8556;52.218;9.884;2022-08-19T01:50:25;18.70;99.90
16879;DHT22;8556;52.218;9.884;2022-08-19T01:52:53;18.70;99.90
16879;DHT22;8556;52.218;9.884;2022-08-19T01:55:21;18.70;99.90
16879;DHT22;8556;52.218;9.884;2022-08-19T01:58:01;18.60;99.90
16879;DHT22;8556;52.218;9.884;2022-08-19T02:00:30;18.60;99.90
16879;DHT22;8556;52.218;9.884;2022-08-19T02:02:58;18.50;99.90
16879;DHT22;8556;52.218;9.884;2022-08-19T02:05:27;18.60;99.90
16879;DHT22;8556;52.218;9.884;2022-08-19T02:07:55;18.50;99.90
16879;DHT22;8556;52.218;9.884;2022-08-19T02:10:22;18.60;99.90
16879;DHT22;8556;52.218;9.884;2022-08-19T02:12:53;18.50;99.90
16879;DHT22;8556;52.218;9.884;2022-08-19T02:15:24;18.50;99.90
16879;DHT22;8556;52.218;9.884;2022-08-19T02:17:51;18.60;99.90
16879;DHT22;8556;52.218;9.884;2022-08-19T02:20:18;18.50;99.90
16879;DHT22;8556;52.218;9.884;2022-08-19T02:22:45;18.50;99.90
16879;DHT22;8556;52.218;9.884;2022-08-19T02:25:13;18.50;99.90
16879;DHT22;8556;52.218;9.884;2022-08-19T02:27:41;18.40;99.90
16879;DHT22;8556;52.218;9.884;2022-08-19T02:30:15;18.40;99.90
16879;DHT22;8556;52.218;9.884;2022-08-19T02:32:42;18.40;99.90
16879;DHT22;8556;52.218;9.884;2022-08-19T02:35:10;18.40;99.90
16879;DHT22;8556;52.218;9.884;2022-08-19T02:37:36;18.40;99.90
16879;DHT22;8556;52.218;9.884;2022-08-19T02:40:21;18.50;99.90
16879;DHT22;8556;52.218;9.884;2022-08-19T02:42:48;18.50;99.90
16879;DHT22;8556;52.218;9.884;2022-08-19T02:45:16;18.40;99.90
16879;DHT22;8556;52.218;9.884;2022-08-19T02:47:43;18.40;99.90
16879;DHT22;8556;52.218;9.884;2022-08-19T02:50:10;18.40;99.90
16879;DHT22;8556;52.218;9.884;2022-08-19T02:52:36;18.30;99.90
16879;DHT22;8556;52.218;9.884;2022-08-19T02:55:04;18.40;99.90
16879;DHT22;8556;52.218;9.884;2022-08-19T02:57:32;18.40;99.90
16879;DHT22;8556;52.218;9.884;2022-08-19T02:59:59;18.40;99.90
16879;DHT22;8556;52.218;9.884;2022-08-19T03:02:28;18.40;99.90
16879;DHT22;8556;52.218;9.884;2022-08-19T03:04:56;18.50;99.90
16879;DHT22;8556;52.218;9.884;2022-08-19T03:07:23;18.50;99.90
16879;DHT22;8556;52.218;9.884;2022-08-19T03:09:49;18.50;99.90
16879;DHT22;8556;52.218;9.884;2022-08-19T03:12:16;18.40;99.90
16879;DHT22;8556;52.218;9.884;2022-08-19T03:14:43;18.50;99.90
16879;DHT22;8556;52.218;9.884;2022-08-19T03:17:12;18.40;99.90
16879;DHT22;8556;52.218;9.884;2022-08-19T03:19:40;18.50;99.90
16879;DHT22;8556;52.218;9.884;2022-08-19T03:22:08;18.50;99.90
16879;DHT22;8556;52.218;9.884;2022-08-19T03:24:35;18.50;99.90
16879;DHT22;8556;52.218;9.884;2022-08-19T03:27:03;18.50;99.90
16879;DHT22;8556;52.218;9.884;2022-08-19T03:29:31;18.50;99.90
16879;DHT22;8556;52.218;9.884;2022-08-19T03:31:59;18.50;99.90
16879;DHT22;8556;52.218;9.884;2022-08-19T03:34:30;18.50;99.90
16879;DHT22;8556;52.218;9.884;2022-08-19T03:37:02;18.40;99.90
16879;DHT22;8556;52.218;9.884;2022-08-19T03:39:30;18.50;99.90
16879;DHT22;8556;52.218;9.884;2022-08-19T03:41:57;18.60;99.90
16879;DHT22;8556;52.218;9.884;2022-08-19T03:44:25;18.50;99.90
16879;DHT22;8556;52.218;9.884;2022-08-19T03:46:53;18.50;99.90
16879;DHT22;8556;52.218;9.884;2022-08-19T03:49:22;18.50;99.90
16879;DHT22;8556;52.218;9.884;2022-08-19T03:51:50;18.50;99.90
16879;DHT22;8556;52.218;9.884;2022-08-19T03:54:22;18.50;99.90
16879;DHT22;8556;52.218;9.884;2022-08-19T03:56:50;18.40;99.90
16879;DHT22;8556;52.218;9.884;2022-08-19T03:59:19;18.40;99.90
16879;DHT22;8556;52.218;9.884;2022-08-19T04:01:52;18.40;99.90
16879;DHT22;8556;52.218;9.884;2022-08-19T04:04:19;18.40;99.90
16879;DHT22;8556;52.218;9.884;2022-08-19T04:06:47;18.40;99.90
16879;DHT22;8556;52.218;9.884;2022-08-19T04:09:14;18.40;99.90
16879;DHT22;8556;52.218;9.884;2022-08-19T04:11:44;18.40;99.90
16879;DHT22;8556;52.218;9.884;2022-08-19T04:14:14;18.40;99.90
16879;DHT22;8556;52.218;9.884;2022-08-19T04:16:42;18.40;99.90
16879;DHT22;8556;52.218;9.884;2022-08-19T04:19:10;18.40;99.90
16879;DHT22;8556;52.218;9.884;2022-08-19T04:21:37;18.40;99.90
16879;DHT22;8556;52.218;9.884;2022-08-19T04:24:04;18.30;99.90
16879;DHT22;8556;52.218;9.884;2022-08-19T04:26:34;18.30;99.90
16879;DHT22;8556;52.218;9.884;2022-08-19T04:29:05;18.20;99.90
16879;DHT22;8556;52.218;9.884;2022-08-19T04:31:32;18.20;99.90
16879;DHT22;8556;52.218;9.884;2022-08-19T04:34:02;18.30;99.90
16879;DHT22;8556;52.218;9.884;2022-08-19T04:36:31;18.30;99.90
16879;DHT22;8556;52.218;9.884;2022-08-19T04:39:00;18.30;99.90
16879;DHT22;8556;52.218;9.884;2022-08-19T04:41:28;18.30;99.90
16879;DHT22;8556;52.218;9.884;2022-08-19T04:44:14;18.20;99.90
16879;DHT22;8556;52.218;9.884;2022-08-19T04:46:43;18.30;99.90
16879;DHT22;8556;52.218;9.884;2022-08-19T04:49:10;18.30;99.90
16879;DHT22;8556;52.218;9.884;2022-08-19T04:51:40;18.20;99.90
16879;DHT22;8556;52.218;9.884;2022-08-19T04:54:08;18.20;99.90
16879;DHT22;8556;52.218;9.884;2022-08-19T04:56:35;18.10;99.90
16879;DHT22;8556;52.218;9.884;2022-08-19T04:59:02;18.20;99.90
16879;DHT22;8556;52.218;9.884;2022-08-19T05:01:32;18.10;99.90
16879;DHT22;8556;52.218;9.884;2022-08-19T05:04:00;18.10;99.90
16879;DHT22;8556;52.218;9.884;2022-08-19T05:06:30;18.10;99.90
16879;DHT22;8556;52.218;9.884;2022-08-19T05:08:59;18.10;99.90
16879;DHT22;8556;52.218;9.884;2022-08-19T05:11:28;18.10;99.90
16879;DHT22;8556;52.218;9.884;2022-08-19T05:13:57;18.20;99.90
16879;DHT22;8556;52.218;9.884;2022-08-19T05:16:25;18.20;99.90
16879;DHT22;8556;52.218;9.884;2022-08-19T05:18:54;18.10;99.90
16879;DHT22;8556;52.218;9.884;2022-08-19T05:21:40;18.20;99.90
16879;DHT22;8556;52.218;9.884;2022-08-19T05:24:25;18.10;99.90
16879;DHT22;8556;52.218;9.884;2022-08-19T05:26:53;18.10;99.90
16879;DHT22;8556;52.218;9.884;2022-08-19T05:29:23;17.90;99.90
16879;DHT22;8556;52.218;9.884;2022-08-19T05:31:52;18.10;99.90
16879;DHT22;8556;52.218;9.884;2022-08-19T05:34:22;18.10;99.90
16879;DHT22;8556;52.218;9.884;2022-08-19T05:36:51;18.00;99.90
16879;DHT22;8556;52.218;9.884;2022-08-19T05:39:23;18.20;99.90
16879;DHT22;8556;52.218;9.884;2022-08-19T05:41:52;18.10;99.90
16879;DHT22;8556;52.218;9.884;2022-08-19T05:44:20;18.10;99.90
16879;DHT22;8556;52.218;9.884;2022-08-19T05:46:48;18.20;99.90
16879;DHT22;8556;52.218;9.884;2022-08-19T05:49:15;18.20;99.90
16879;DHT22;8556;52.218;9.884;2022-08-19T05:51:43;18.20;99.90
16879;DHT22;8556;52.218;9.884;2022-08-19T05:54:10;18.10;99.90
16879;DHT22;8556;52.218;9.884;2022-08-19T05:56:39;18.20;99.90
16879;DHT22;8556;52.218;9.884;2022-08-19T05:59:08;18.30;99.90
16879;DHT22;8556;52.218;9.884;2022-08-19T06:01:35;18.40;99.90
16879;DHT22;8556;52.218;9.884;2022-08-19T06:04:03;18.30;99.90
16879;DHT22;8556;52.218;9.884;2022-08-19T06:06:30;18.30;99.90
16879;DHT22;8556;52.218;9.884;2022-08-19T06:09:00;18.20;99.90
16879;DHT22;8556;52.218;9.884;2022-08-19T06:11:33;18.20;99.90
16879;DHT22;8556;52.218;9.884;2022-08-19T06:14:03;18.10;99.90
16879;DHT22;8556;52.218;9.884;2022-08-19T06:16:31;18.10;99.90
16879;DHT22;8556;52.218;9.884;2022-08-19T06:19:02;18.10;99.90
16879;DHT22;8556;52.218;9.884;2022-08-19T06:21:30;18.10;99.90
16879;DHT22;8556;52.218;9.884;2022-08-19T06:23:57;18.10;99.90
16879;DHT22;8556;52.218;9.884;2022-08-19T06:26:26;18.00;99.90
16879;DHT22;8556;52.218;9.884;2022-08-19T06:28:53;18.20;99.90
16879;DHT22;8556;52.218;9.884;2022-08-19T06:31:22;18.10;99.90
16879;DHT22;8556;52.218;9.884;2022-08-19T06:33:49;18.20;99.90
16879;DHT22;8556;52.218;9.884;2022-08-19T06:36:18;18.20;99.90
16879;DHT22;8556;52.218;9.884;2022-08-19T06:38:45;18.20;99.90
16879;DHT22;8556;52.218;9.884;2022-08-19T06:41:12;18.10;99.90
16879;DHT22;8556;52.218;9.884;2022-08-19T06:43:40;18.10;99.90
16879;DHT22;8556;52.218;9.884;2022-08-19T06:46:12;18.10;99.90
16879;DHT22;8556;52.218;9.884;2022-08-19T06:48:39;18.20;99.90
16879;DHT22;8556;52.218;9.884;2022-08-19T06:51:06;18.20;99.90
16879;DHT22;8556;52.218;9.884;2022-08-19T06:53:33;18.10;99.90
16879;DHT22;8556;52.218;9.884;2022-08-19T06:56:00;18.20;99.90
16879;DHT22;8556;52.218;9.884;2022-08-19T06:58:28;18.30;99.90
16879;DHT22;8556;52.218;9.884;2022-08-19T07:01:00;18.30;99.90
16879;DHT22;8556;52.218;9.884;2022-08-19T07:03:30;18.30;99.90
16879;DHT22;8556;52.218;9.884;2022-08-19T07:05:58;18.40;99.90
16879;DHT22;8556;52.218;9.884;2022-08-19T07:08:28;18.40;99.90
16879;DHT22;8556;52.218;9.884;2022-08-19T07:10:55;18.40;99.90
16879;DHT22;8556;52.218;9.884;2022-08-19T07:13:22;18.60;99.90
16879;DHT22;8556;52.218;9.884;2022-08-19T07:15:49;18.70;99.90
16879;DHT22;8556;52.218;9.884;2022-08-19T07:18:18;18.90;99.90
16879;DHT22;8556;52.218;9.884;2022-08-19T07:20:46;19.10;99.90
16879;DHT22;8556;52.218;9.884;2022-08-19T07:23:13;19.00;99.90
16879;DHT22;8556;52.218;9.884;2022-08-19T07:25:41;19.10;99.90
16879;DHT22;8556;52.218;9.884;2022-08-19T07:28:08;19.20;99.90
16879;DHT22;8556;52.218;9.884;2022-08-19T07:30:38;19.40;99.90
16879;DHT22;8556;52.218;9.884;2022-08-19T07:33:06;19.40;99.90
16879;DHT22;8556;52.218;9.884;2022-08-19T07:35:34;19.30;99.90
16879;DHT22;8556;52.218;9.884;2022-08-19T07:38:01;19.40;99.90
16879;DHT22;8556;52.218;9.884;2022-08-19T07:40:29;19.50;99.90
16879;DHT22;8556;52.218;9.884;2022-08-19T07:42:56;19.40;99.90
16879;DHT22;8556;52.218;9.884;2022-08-19T07:45:24;19.60;99.90
16879;DHT22;8556;52.218;9.884;2022-08-19T07:47:51;19.70;99.90
16879;DHT22;8556;52.218;9.884;2022-08-19T07:50:19;19.70;99.90
16879;DHT22;8556;52.218;9.884;2022-08-19T07:52:48;19.60;99.90
16879;DHT22;8556;52.218;9.884;2022-08-19T07:55:18;19.70;99.90
16879;DHT22;8556;52.218;9.884;2022-08-19T07:57:45;19.80;99.90
16879;DHT22;8556;52.218;9.884;2022-08-19T08:00:13;19.60;99.90
16879;DHT22;8556;52.218;9.884;2022-08-19T08:02:40;19.60;99.90
16879;DHT22;8556;52.218;9.884;2022-08-19T08:05:09;19.60;99.90
16879;DHT22;8556;52.218;9.884;2022-08-19T08:07:55;19.80;99.90
16879;DHT22;8556;52.218;9.884;2022-08-19T08:10:39;20.10;99.90
16879;DHT22;8556;52.218;9.884;2022-08-19T08:13:06;20.00;99.90
16879;DHT22;8556;52.218;9.884;2022-08-19T08:15:33;20.00;99.90
16879;DHT22;8556;52.218;9.884;2022-08-19T08:18:00;20.20;99.90
16879;DHT22;8556;52.218;9.884;2022-08-19T08:20:28;20.40;99.90
16879;DHT22;8556;52.218;9.884;2022-08-19T08:22:56;20.20;99.90
16879;DHT22;8556;52.218;9.884;2022-08-19T08:25:40;20.50;99.90
16879;DHT22;8556;52.218;9.884;2022-08-19T08:28:07;20.70;99.90
16879;DHT22;8556;52.218;9.884;2022-08-19T08:30:35;20.80;99.90
16879;DHT22;8556;52.218;9.884;2022-08-19T08:33:05;21.10;99.90
16879;DHT22;8556;52.218;9.884;2022-08-19T08:35:32;21.30;99.90
16879;DHT22;8556;52.218;9.884;2022-08-19T08:38:01;21.10;99.90
16879;DHT22;8556;52.218;9.884;2022-08-19T08:40:38;21.20;99.90
16879;DHT22;8556;52.218;9.884;2022-08-19T08:43:07;21.50;99.90
16879;DHT22;8556;52.218;9.884;2022-08-19T08:45:41;21.30;99.90
16879;DHT22;8556;52.218;9.884;2022-08-19T08:48:16;20.90;99.90
16879;DHT22;8556;52.218;9.884;2022-08-19T08:50:47;21.50;99.90
16879;DHT22;8556;52.218;9.884;2022-08-19T08:53:20;21.40;99.90
16879;DHT22;8556;52.218;9.884;2022-08-19T08:55:48;21.60;99.90
16879;DHT22;8556;52.218;9.884;2022-08-19T08:58:19;21.50;99.90
16879;DHT22;8556;52.218;9.884;2022-08-19T09:00:48;21.80;99.90
16879;DHT22;8556;52.218;9.884;2022-08-19T09:03:19;21.40;99.90
16879;DHT22;8556;52.218;9.884;2022-08-19T09:05:56;21.70;99.90
16879;DHT22;8556;52.218;9.884;2022-08-19T09:08:38;21.50;99.90
16879;DHT22;8556;52.218;9.884;2022-08-19T09:11:09;21.70;99.90
16879;DHT22;8556;52.218;9.884;2022-08-19T09:13:44;22.20;99.90
16879;DHT22;8556;52.218;9.884;2022-08-19T09:16:19;21.90;99.90
16879;DHT22;8556;52.218;9.884;2022-08-19T09:18:51;22.00;99.90
16879;DHT22;8556;52.218;9.884;2022-08-19T09:21:19;22.10;99.90
16879;DHT22;8556;52.218;9.884;2022-08-19T09:23:49;22.00;99.90
16879;DHT22;8556;52.218;9.884;2022-08-19T09:26:18;22.10;99.90
16879;DHT22;8556;52.218;9.884;2022-08-19T09:28:47;21.80;99.90
16879;DHT22;8556;52.218;9.884;2022-08-19T09:31:17;22.00;99.90
16879;DHT22;8556;52.218;9.884;2022-08-19T09:33:44;22.20;99.90
16879;DHT22;8556;52.218;9.884;2022-08-19T09:36:13;22.60;99.90
16879;DHT22;8556;52.218;9.884;2022-08-19T09:38:40;22.90;99.90
16879;DHT22;8556;52.218;9.884;2022-08-19T09:41:11;22.80;99.90
16879;DHT22;8556;52.218;9.884;2022-08-19T09:43:39;22.90;99.90
16879;DHT22;8556;52.218;9.884;2022-08-19T09:46:08;23.30;99.90
16879;DHT22;8556;52.218;9.884;2022-08-19T09:48:35;23.50;99.90
16879;DHT22;8556;52.218;9.884;2022-08-19T09:51:04;23.50;99.90
16879;DHT22;8556;52.218;9.884;2022-08-19T09:53:32;23.40;99.90
16879;DHT22;8556;52.218;9.884;2022-08-19T09:55:59;23.50;99.90
16879;DHT22;8556;52.218;9.884;2022-08-19T09:58:27;24.10;99.90
16879;DHT22;8556;52.218;9.884;2022-08-19T10:00:55;24.30;99.90
16879;DHT22;8556;52.218;9.884;2022-08-19T10:03:23;24.10;99.90
16879;DHT22;8556;52.218;9.884;2022-08-19T10:05:49;24.00;99.90
16879;DHT22;8556;52.218;9.884;2022-08-19T10:08:20;24.30;99.90
16879;DHT22;8556;52.218;9.884;2022-08-19T10:10:47;24.00;99.90
16879;DHT22;8556;52.218;9.884;2022-08-19T10:13:16;24.10;99.90
16879;DHT22;8556;52.218;9.884;2022-08-19T10:15:46;24.50;99.90
16879;DHT22;8556;52.218;9.884;2022-08-19T10:18:17;25.10;99.90
16879;DHT22;8556;52.218;9.884;2022-08-19T10:20:44;24.90;99.90
16879;DHT22;8556;52.218;9.884;2022-08-19T10:23:12;25.30;99.90
16879;DHT22;8556;52.218;9.884;2022-08-19T10:25:40;25.70;99.90
16879;DHT22;8556;52.218;9.884;2022-08-19T10:28:08;25.90;95.20
16879;DHT22;8556;52.218;9.884;2022-08-19T10:30:38;25.40;98.70
16879;DHT22;8556;52.218;9.884;2022-08-19T10:33:06;25.10;99.90
16879;DHT22;8556;52.218;9.884;2022-08-19T10:35:33;25.50;99.90
16879;DHT22;8556;52.218;9.884;2022-08-19T10:38:00;25.20;99.90
16879;DHT22;8556;52.218;9.884;2022-08-19T10:40:28;25.20;98.40
16879;DHT22;8556;52.218;9.884;2022-08-19T10:42:55;25.10;93.10
16879;DHT22;8556;52.218;9.884;2022-08-19T10:45:23;25.30;98.50
16879;DHT22;8556;52.218;9.884;2022-08-19T10:47:51;25.60;93.80
16879;DHT22;8556;52.218;9.884;2022-08-19T10:50:20;26.00;94.10
16879;DHT22;8556;52.218;9.884;2022-08-19T10:53:06;25.10;92.40
16879;DHT22;8556;52.218;9.884;2022-08-19T10:55:34;25.60;75.10
16879;DHT22;8556;52.218;9.884;2022-08-19T10:58:20;25.70;64.30
16879;DHT22;8556;52.218;9.884;2022-08-19T11:00:51;25.90;79.50
16879;DHT22;8556;52.218;9.884;2022-08-19T11:03:19;25.70;67.70
16879;DHT22;8556;52.218;9.884;2022-08-19T11:05:57;26.00;56.20
16879;DHT22;8556;52.218;9.884;2022-08-19T11:08:24;25.20;52.40
16879;DHT22;8556;52.218;9.884;2022-08-19T11:10:53;25.70;63.40
16879;DHT22;8556;52.218;9.884;2022-08-19T11:13:22;25.50;68.90
16879;DHT22;8556;52.218;9.884;2022-08-19T11:15:57;25.00;59.30
16879;DHT22;8556;52.218;9.884;2022-08-19T11:18:24;25.10;64.60
16879;DHT22;8556;52.218;9.884;2022-08-19T11:20:52;25.80;60.00
16879;DHT22;8556;52.218;9.884;2022-08-19T11:23:20;26.30;52.70
16879;DHT22;8556;52.218;9.884;2022-08-19T11:25:47;26.10;56.00
16879;DHT22;8556;52.218;9.884;2022-08-19T11:28:13;26.50;47.10
16879;DHT22;8556;52.218;9.884;2022-08-19T11:30:40;26.50;56.20
16879;DHT22;8556;52.218;9.884;2022-08-19T11:33:07;26.50;57.50
16879;DHT22;8556;52.218;9.884;2022-08-19T11:35:39;26.50;50.40
16879;DHT22;8556;52.218;9.884;2022-08-19T11:38:07;26.40;56.50
16879;DHT22;8556;52.218;9.884;2022-08-19T11:40:34;26.40;57.70
16879;DHT22;8556;52.218;9.884;2022-08-19T11:43:01;26.80;50.40
16879;DHT22;8556;52.218;9.884;2022-08-19T11:45:30;26.80;43.20
16879;DHT22;8556;52.218;9.884;2022-08-19T11:47:56;26.70;38.80
16879;DHT22;8556;52.218;9.884;2022-08-19T11:50:24;27.30;36.30
16879;DHT22;8556;52.218;9.884;2022-08-19T11:52:53;27.00;39.90
16879;DHT22;8556;52.218;9.884;2022-08-19T11:55:22;27.10;34.50
16879;DHT22;8556;52.218;9.884;2022-08-19T11:57:49;27.20;30.30
16879;DHT22;8556;52.218;9.884;2022-08-19T12:00:16;27.00;29.50
16879;DHT22;8556;52.218;9.884;2022-08-19T12:02:43;27.00;32.10
16879;DHT22;8556;52.218;9.884;2022-08-19T12:05:10;26.90;32.00
16879;DHT22;8556;52.218;9.884;2022-08-19T12:07:37;26.80;29.70
16879;DHT22;8556;52.218;9.884;2022-08-19T12:10:04;27.10;40.80
16879;DHT22;8556;52.218;9.884;2022-08-19T12:12:32;27.00;32.90
16879;DHT22;8556;52.218;9.884;2022-08-19T12:14:59;27.60;32.40
16879;DHT22;8556;52.218;9.884;2022-08-19T12:17:26;27.30;30.00
16879;DHT22;8556;52.218;9.884;2022-08-19T12:19:54;26.50;44.50
16879;DHT22;8556;52.218;9.884;2022-08-19T12:22:21;26.60;35.50
16879;DHT22;8556;52.218;9.884;2022-08-19T12:24:48;26.60;35.30
16879;DHT22;8556;52.218;9.884;2022-08-19T12:27:17;26.10;38.10
16879;DHT22;8556;52.218;9.884;2022-08-19T12:29:46;26.00;41.40
16879;DHT22;8556;52.218;9.884;2022-08-19T12:32:13;26.10;49.40
16879;DHT22;8556;52.218;9.884;2022-08-19T12:34:40;26.30;43.20
16879;DHT22;8556;52.218;9.884;2022-08-19T12:37:08;27.00;27.50
16879;DHT22;8556;52.218;9.884;2022-08-19T12:39:38;27.40;27.60
16879;DHT22;8556;52.218;9.884;2022-08-19T12:42:05;28.10;22.90
16879;DHT22;8556;52.218;9.884;2022-08-19T12:44:35;27.50;25.30
16879;DHT22;8556;52.218;9.884;2022-08-19T12:47:04;27.80;22.00
16879;DHT22;8556;52.218;9.884;2022-08-19T12:49:33;28.10;24.30
16879;DHT22;8556;52.218;9.884;2022-08-19T12:52:00;27.80;23.00
16879;DHT22;8556;52.218;9.884;2022-08-19T12:54:27;27.00;28.80
16879;DHT22;8556;52.218;9.884;2022-08-19T12:56:54;27.90;23.60
16879;DHT22;8556;52.218;9.884;2022-08-19T12:59:21;27.80;20.50
16879;DHT22;8556;52.218;9.884;2022-08-19T13:01:48;27.90;20.90
16879;DHT22;8556;52.218;9.884;2022-08-19T13:04:17;28.00;19.70
16879;DHT22;8556;52.218;9.884;2022-08-19T13:06:44;27.60;24.10
16879;DHT22;8556;52.218;9.884;2022-08-19T13:09:11;27.80;22.10
16879;DHT22;8556;52.218;9.884;2022-08-19T13:11:38;28.00;23.40
16879;DHT22;8556;52.218;9.884;2022-08-19T13:14:05;28.10;22.20
16879;DHT22;8556;52.218;9.884;2022-08-19T13:16:32;28.10;19.70
16879;DHT22;8556;52.218;9.884;2022-08-19T13:18:58;27.50;18.80
16879;DHT22;8556;52.218;9.884;2022-08-19T13:21:29;27.90;19.90
16879;DHT22;8556;52.218;9.884;2022-08-19T13:23:57;27.90;19.70
16879;DHT22;8556;52.218;9.884;2022-08-19T13:26:24;28.20;21.50
16879;DHT22;8556;52.218;9.884;2022-08-19T13:28:51;27.50;22.80
16879;DHT22;8556;52.218;9.884;2022-08-19T13:31:38;27.60;17.20
16879;DHT22;8556;52.218;9.884;2022-08-19T13:34:28;27.20;23.90
16879;DHT22;8556;52.218;9.884;2022-08-19T13:36:57;26.90;25.40
16879;DHT22;8556;52.218;9.884;2022-08-19T13:39:24;26.90;26.90
16879;DHT22;8556;52.218;9.884;2022-08-19T13:41:51;26.90;22.30
16879;DHT22;8556;52.218;9.884;2022-08-19T13:44:18;26.40;32.40
16879;DHT22;8556;52.218;9.884;2022-08-19T13:46:46;27.10;27.20
16879;DHT22;8556;52.218;9.884;2022-08-19T13:49:14;27.10;25.30
16879;DHT22;8556;52.218;9.884;2022-08-19T13:51:41;27.10;19.00
16879;DHT22;8556;52.218;9.884;2022-08-19T13:54:10;27.70;16.30
16879;DHT22;8556;52.218;9.884;2022-08-19T13:56:40;27.60;16.60
16879;DHT22;8556;52.218;9.884;2022-08-19T13:59:07;27.00;18.20
16879;DHT22;8556;52.218;9.884;2022-08-19T14:01:34;26.90;25.20
16879;DHT22;8556;52.218;9.884;2022-08-19T14:04:01;27.10;18.00
16879;DHT22;8556;52.218;9.884;2022-08-19T14:06:28;27.70;25.00
16879;DHT22;8556;52.218;9.884;2022-08-19T14:08:55;28.10;17.40
16879;DHT22;8556;52.218;9.884;2022-08-19T14:11:24;27.50;20.30
16879;DHT22;8556;52.218;9.884;2022-08-19T14:13:51;27.20;19.30
16879;DHT22;8556;52.218;9.884;2022-08-19T14:16:18;26.90;19.70
16879;DHT22;8556;52.218;9.884;2022-08-19T14:18:47;27.50;18.50
16879;DHT22;8556;52.218;9.884;2022-08-19T14:21:19;26.50;18.60
16879;DHT22;8556;52.218;9.884;2022-08-19T14:23:46;26.60;36.30
16879;DHT22;8556;52.218;9.884;2022-08-19T14:26:16;26.40;36.20
16879;DHT22;8556;52.218;9.884;2022-08-19T14:28:45;26.60;33.70
16879;DHT22;8556;52.218;9.884;2022-08-19T14:31:14;27.00;25.40
16879;DHT22;8556;52.218;9.884;2022-08-19T14:33:44;26.90;23.60
16879;DHT22;8556;52.218;9.884;2022-08-19T14:36:11;26.70;24.70
16879;DHT22;8556;52.218;9.884;2022-08-19T14:38:38;26.60;27.10
16879;DHT22;8556;52.218;9.884;2022-08-19T14:41:07;26.40;28.60
16879;DHT22;8556;52.218;9.884;2022-08-19T14:43:34;26.20;30.00
16879;DHT22;8556;52.218;9.884;2022-08-19T14:46:02;26.00;28.80
16879;DHT22;8556;52.218;9.884;2022-08-19T14:48:29;26.60;22.10
16879;DHT22;8556;52.218;9.884;2022-08-19T14:50:56;26.90;19.30
16879;DHT22;8556;52.218;9.884;2022-08-19T14:53:23;27.40;19.90
16879;DHT22;8556;52.218;9.884;2022-08-19T14:55:51;28.00;19.60
16879;DHT22;8556;52.218;9.884;2022-08-19T14:58:18;27.50;16.00
16879;DHT22;8556;52.218;9.884;2022-08-19T15:00:45;26.60;20.00
16879;DHT22;8556;52.218;9.884;2022-08-19T15:03:14;26.30;25.80
16879;DHT22;8556;52.218;9.884;2022-08-19T15:05:41;26.50;27.40
16879;DHT22;8556;52.218;9.884;2022-08-19T15:08:07;26.80;21.50
16879;DHT22;8556;52.218;9.884;2022-08-19T15:10:34;27.50;15.60
16879;DHT22;8556;52.218;9.884;2022-08-19T15:13:01;27.70;14.50
16879;DHT22;8556;52.218;9.884;2022-08-19T15:15:28;28.00;11.60
16879;DHT22;8556;52.218;9.884;2022-08-19T15:17:55;27.80;9.40
16879;DHT22;8556;52.218;9.884;2022-08-19T15:20:29;27.90;13.70
16879;DHT22;8556;52.218;9.884;2022-08-19T15:22:57;27.40;13.70
16879;DHT22;8556;52.218;9.884;2022-08-19T15:25:24;26.80;14.10
16879;DHT22;8556;52.218;9.884;2022-08-19T15:27:51;26.70;20.60
16879;DHT22;8556;52.218;9.884;2022-08-19T15:30:21;26.90;15.30
16879;DHT22;8556;52.218;9.884;2022-08-19T15:32:48;26.90;13.20
16879;DHT22;8556;52.218;9.884;2022-08-19T15:35:15;27.00;13.10
16879;DHT22;8556;52.218;9.884;2022-08-19T15:37:47;26.50;10.70
16879;DHT22;8556;52.218;9.884;2022-08-19T15:40:14;26.90;14.00
16879;DHT22;8556;52.218;9.884;2022-08-19T15:42:41;26.30;14.10
16879;DHT22;8556;52.218;9.884;2022-08-19T15:45:09;26.30;15.30
16879;DHT22;8556;52.218;9.884;2022-08-19T15:47:37;26.30;14.60
16879;DHT22;8556;52.218;9.884;2022-08-19T15:50:05;26.50;16.40
16879;DHT22;8556;52.218;9.884;2022-08-19T15:52:32;26.60;14.50
16879;DHT22;8556;52.218;9.884;2022-08-19T15:55:01;26.80;11.10